x

New London Ledge Ct - Ledge Light Weather Station (ldlc3) Weather Station

7:50 - Tue 27th Sep 2016 All times are EDT. -4 hours from GMT.

  • Wind
    8mph, 9mph gusts
  • Air Temp 68°f
  • Sea Pressure 1013.3mb
  • New London Ledge Ct - Ledge Light Weather Station
  • New London Ledge Ct - Ledge Light Weather Station

More Historic Weather Station data

Upgrade to MSW Pro to gain access to the past 30 days of data for over 8000 Wavebouys and Weather Stations around the globe.

Join Pro

Comparision Forecast

View Surf forecast
   
mar. 09/27 7:50 8 9 mph 1013.3mb 68f
7:35 9 10 mph 1013.3mb 68f
7:20 7 8 mph 1013.1mb 68f
7:05 8 10 mph 1012.9mb 68f
6:50 8 9 mph 1012.8mb 68f
6:35 9 10 mph 1012.7mb 68f
6:20 9 10 mph 1012.7mb 68f
6:05 8 9 mph 1012.6mb 69f
5:50 7
mph
1012.4mb 69f
5:35 5 6 mph 1012mb 70f
5:20 5
mph
1011.9mb 69f
5:05 6 7 mph 1011.8mb 68f
4:50 7 8 mph 1011.9mb 69f
4:35 8 9 mph 1011.9mb 69f
4:20 8 9 mph 1011.9mb 69f
4:05 3 5 mph 1011.6mb 70f
3:50 6 7 mph 1011.8mb 69f
3:35 6 7 mph 1011.7mb 69f
3:20 5 6 mph 1011.8mb 70f
3:05 5 6 mph 1011.8mb 70f
2:50 6 7 mph 1012mb 70f
2:35 6 7 mph 1012mb 70f
2:20 6 7 mph 1012mb 70f
2:05 6
mph
1011.9mb 69f
1:50 3 5 mph 1011.8mb 70f
1:35 2 3 mph 1011.8mb 70f
1:20 2 3 mph 1012mb 69f
1:05 1 2 mph 1012.3mb 72f
12:50 2 3 mph 1012.5mb 71f
12:35 5 7 mph 1012.5mb 69f
12:20 6 7 mph 1012.5mb 69f
12:05 6 7 mph 1012.5mb 68f
11:50 8 10 mph 1012.7mb 67f
11:35 8 10 mph 1012.7mb 67f
11:20 9 10 mph 1012.5mb 67f
11:05 8 10 mph 1012.7mb 67f
10:50 6 10 mph 1012.8mb 67f
10:35 7
mph
1012.7mb 67f
10:20 6 7 mph 1012.6mb 67f
10:05 6 7 mph 1012.5mb 67f
9:50 6 8 mph 1012.4mb 66f
9:35 9 11 mph 1012.5mb 67f
9:20 6 8 mph 1012.4mb 67f
9:05 3 5 mph 1012.2mb 67f
8:50 6 7 mph 1012.1mb 67f
8:35 8 10 mph 1012mb 67f
8:20 9 11 mph 1012mb 67f
8:05 11 14 mph 1011.7mb 67f
7:50 15 18 mph 1011.7mb 67f
7:35 18 21 mph 1011.8mb 67f
7:20 17 21 mph 1011.7mb 68f
7:05 20 23 mph 1011.4mb 69f
6:50 23 26 mph 1011.3mb 69f
6:35 28 32 mph 1010.7mb 69f
6:20 29 33 mph 1010.3mb 68f
6:05 25 29 mph 1010.7mb 67f
5:50 23 28 mph 1011mb 67f
5:35 21 24 mph 1011.3mb 67f
5:20 23 26 mph 1011.4mb 67f
5:05 28 34 mph 1011.4mb 67f
4:50 20 23 mph 1011.8mb 68f
4:35 20 23 mph 1012mb 69f
4:20 20 22 mph 1011.9mb 70f
4:05 20 22 mph 1012.1mb 69f
3:50 21 23 mph 1012.3mb 69f
3:35 18 23 mph 1012.5mb 69f
3:20 22 24 mph 1012.6mb 69f
3:05 20 24 mph 1012.9mb 69f
2:50 21 23 mph 1013.2mb 69f
2:35 18 21 mph 1013.6mb 69f
2:20 18 21 mph 1013.9mb 69f
2:05 20 22 mph 1014.1mb 68f
1:50 22 25 mph 1014.1mb 68f
1:35 23 25 mph 1014.1mb 68f
1:20 24 26 mph 1014mb 68f
1:05 24 26 mph 1014.1mb 68f
lun. 09/26 7:50 21 24 mph 1017.7mb 65f
7:35 20 22 mph 1017.8mb 65f
7:20 21 24 mph 1018mb 65f
7:05 18 24 mph 1017.9mb 65f
6:50 18 21 mph 1018mb 65f
6:35 20 23 mph 1018mb 64f
6:20 18 22 mph 1018.3mb 64f
6:05 18 21 mph 1018.5mb 65f
5:50 17 21 mph 1018.6mb 65f
5:35 16 20 mph 1018.7mb 65f
5:20 16 20 mph 1018.9mb 64f
5:05 15 18 mph 1019mb 64f
4:50 15 17 mph 1019.2mb 64f
4:35 11 15 mph 1019.3mb 65f
4:20 13 15 mph 1019.6mb 64f
4:05 14 17 mph 1019.7mb 65f
3:50 13 16 mph 1019.7mb 65f
3:35 13 16 mph 1019.9mb 65f
3:20 9 13 mph 1020.1mb 63f
3:05 8 10 mph 1020.2mb 63f
2:50 9 11 mph 1020.3mb 63f
2:35 9 11 mph 1020.5mb 63f
2:20 7 10 mph 1020.5mb 62f
2:05 8 10 mph 1020.6mb 62f
1:50 8 9 mph 1020.8mb 62f
1:35 8 11 mph 1021mb 62f
1:20 8 9 mph 1021.2mb 62f
1:05 7 9 mph 1021.3mb 61f
12:50 7 9 mph 1021.6mb 61f
12:35 7 9 mph 1021.7mb 61f
12:20 7 9 mph 1021.6mb 61f
12:05 6 9 mph 1021.8mb 62f
11:50 7 9 mph 1021.8mb 61f
11:35 3 6 mph 1022mb 62f
11:20 5 7 mph 1022.3mb 61f
11:05 5 6 mph 1022.4mb 60f
10:50 6 7 mph 1022.4mb 60f
10:35 7 10 mph 1022.4mb 60f
10:20 6 7 mph 1022.5mb 60f
10:05 6 8 mph 1022.7mb 59f
9:50 5 7 mph 1022.9mb 59f
9:35 5 7 mph 1023mb 59f
9:20 6 8 mph 1023mb 57f
9:05 9 13 mph 1022.8mb 56f
8:50 10 11 mph 1023mb 55f
8:35 9 11 mph 1023mb 54f
8:20 11 14 mph 1022.9mb 53f
8:05 10 14 mph 1022.8mb 52f
7:50 10 13 mph 1022.8mb 52f
7:35 13 15 mph 1022.6mb 51f
7:20 13 16 mph 1022.7mb 50f
7:05 14 16 mph 1022.4mb 50f
6:50 11 13 mph 1022.3mb 49f
6:35 8 10 mph 1022.4mb 48f
6:20 10 11 mph 1022.3mb 49f
6:05 10 13 mph 1022.1mb 49f
5:50 11 14 mph 1021.8mb 49f
5:35 9 10 mph 1021.7mb 49f
5:20 10 11 mph 1021.6mb 49f
5:05 8 10 mph 1021.6mb 50f
4:50 7 9 mph 1021.6mb 50f
4:35 6 8 mph 1021.5mb 50f
4:20 9 11 mph 1021.6mb 51f
4:05 11 13 mph 1021.6mb 51f
3:50 9 11 mph 1021.7mb 51f
3:35 8 10 mph 1021.7mb 52f
3:20 7 9 mph 1021.8mb 51f
3:05 11 13 mph 1021.8mb 52f
2:50 11 13 mph 1022mb 52f
2:35 8 10 mph 1022.1mb 52f
2:20 10 13 mph 1022.1mb 52f
2:05 10 13 mph 1022mb 53f
1:50 11 13 mph 1022mb 53f
1:35 8 10 mph 1022mb 53f
1:20 10 13 mph 1022mb 53f
1:05 11 14 mph 1022mb 54f
dim. 09/25 7:50 10 13 mph 1020.1mb 62f
7:35 13 14 mph 1019.9mb 62f
7:20 10 11 mph 1019.8mb 62f
7:05 9 10 mph 1019.7mb 63f
6:50 9 11 mph 1019.4mb 64f
6:35 10 13 mph 1019.1mb 65f
6:20 11 14 mph 1018.8mb 65f
6:05 10 14 mph 1018.6mb 66f
5:50 14 16 mph 1018.5mb 67f
5:35 10 14 mph 1018.4mb 67f
5:20 11 14 mph 1018.4mb 67f
5:05 17 21 mph 1018.2mb 67f
4:50 13 16 mph 1018.2mb 67f
4:35 15 17 mph 1018.1mb 67f
4:20 15 20 mph 1018.1mb 67f
4:05 17 21 mph 1018.3mb 66f
3:50 17 24 mph 1018.2mb 66f
3:35 14 25 mph 1018.3mb 66f
3:20 10 15 mph 1018.4mb 67f
3:05 13 16 mph 1018.5mb 66f
2:50 9 14 mph 1018.6mb 66f
2:35 16 23 mph 1018.6mb 66f
2:20 16 22 mph 1018.7mb 65f
2:05 13 16 mph 1019mb 65f
1:50 16 21 mph 1019.1mb 64f
1:35 17 22 mph 1019.2mb 64f
1:20 20 23 mph 1019.4mb 63f
1:05 18 24 mph 1019.6mb 63f
12:50 13 18 mph 1019.8mb 63f
12:35 14 20 mph 1020mb 62f
12:20 11 16 mph 1020.2mb 62f
12:05 14 17 mph 1020.2mb 61f
11:50 15 20 mph 1020.3mb 61f
11:35 22 26 mph 1020.2mb 60f
11:20 20 24 mph 1020.4mb 60f
11:05 20 23 mph 1020.5mb 60f
10:50 18 22 mph 1020.8mb 59f
10:35 16 20 mph 1020.8mb 59f
10:20 16 20 mph 1020.8mb 59f
10:05 17 21 mph 1020.9mb 58f
9:50 16 20 mph 1020.8mb 58f
9:35 15 18 mph 1020.8mb 58f
9:20 11 15 mph 1020.9mb 57f
9:05 13 15 mph 1021.1mb 57f
8:50 10 14 mph 1021.3mb 56f
8:35 9 13 mph 1021.2mb 55f
8:20 9 11 mph 1021.1mb 54f
8:05 9 11 mph 1021.2mb 54f
7:50 10 14 mph 1021.1mb 53f
7:35 11 14 mph 1020.9mb 52f
7:20 10 13 mph 1020.9mb 52f
7:05 11 13 mph 1020.7mb 52f
6:50 11 15 mph 1020.7mb 52f
6:35 13 15 mph 1020.4mb 51f
6:20 13 18 mph 1020.2mb 52f
6:05 14 18 mph 1020.1mb 52f
5:50 14 18 mph 1020.1mb 53f
5:35 14 17 mph 1020.1mb 53f
5:20 13 16 mph 1020mb 53f
5:05 15 18 mph 1019.7mb 54f
4:50 14 18 mph 1019.4mb 54f
4:35 11 14 mph 1019.4mb 53f
4:20 11 14 mph 1019.4mb 53f
4:05 14 17 mph 1019.2mb 54f
3:50 14 17 mph 1019.2mb 54f
3:35 14 16 mph 1019.2mb 54f
3:20 16 17 mph 1019.1mb 54f
3:05 15 17 mph 1019.2mb 54f
2:50 13 15 mph 1019.2mb 53f
2:35 11 13 mph 1019.2mb 54f
2:20 10 11 mph 1019.2mb 54f
2:05 11 13 mph 1019.2mb 54f
1:50 9 11 mph 1019.2mb 54f
1:35 9 10 mph 1019.2mb 54f
1:20 9 11 mph 1019.2mb 54f
1:05 9 10 mph 1019.1mb 54f
sam. 09/24 7:50 9 11 mph 1018.5mb 63f
7:35 7 8 mph 1018.4mb 64f
7:20 8 9 mph 1018.3mb 64f
7:05 7 8 mph 1018.2mb 65f
6:50 8 10 mph 1018.1mb 65f
6:35 9 13 mph 1018mb 66f
6:20 11 14 mph 1017.9mb 66f
6:05 7 9 mph 1017.7mb 66f
5:50 8 11 mph 1017.5mb 67f
5:35 14 16 mph 1017.4mb 68f
5:20 14 18 mph 1017.4mb 68f
5:05 13 17 mph 1017.4mb 67f
4:50 11 15 mph 1017.4mb 67f
4:35 15 21 mph 1017.4mb 67f
4:20 20 23 mph 1017.2mb 67f
4:05 16 21 mph 1017.2mb 67f
3:50 15 22 mph 1017.2mb 67f
3:35 14 18 mph 1017.2mb 67f
3:20 16 18 mph 1017.2mb 66f
3:05 13 15 mph 1017.5mb 66f
2:50 14 23 mph 1017.7mb 67f
2:35 13 15 mph 1017.9mb 66f
2:20 16 21 mph 1017.8mb 68f
2:05 15 18 mph 1017.8mb 66f
1:50 13 17 mph 1018mb 65f
1:35 7 11 mph 1018.3mb 65f
1:20 14 18 mph 1018.3mb 65f
1:05 11 16 mph 1018.4mb 64f
12:50 13 16 mph 1018.5mb 65f
12:35 17 22 mph 1018.5mb 64f
12:20 15 18 mph 1018.5mb 64f
12:05 11 15 mph 1018.5mb 65f
11:50 13 18 mph 1018.8mb 63f
11:35 15 20 mph 1018.9mb 64f
11:20 13 17 mph 1019mb 63f
11:05 16 21 mph 1019.1mb 62f
10:50 13 16 mph 1019mb 62f
10:35 13 20 mph 1019mb 62f
10:20 10 14 mph 1019.1mb 61f
10:05 14 17 mph 1019.2mb 60f
9:50 14 17 mph 1019.2mb 60f
9:35 14 18 mph 1018.9mb 59f
9:20 13 16 mph 1018.7mb 58f
9:05 14 18 mph 1018.8mb 58f
8:50 16 20 mph 1018.7mb 57f
8:35 14 16 mph 1018.8mb 58f
8:20 14 17 mph 1018.9mb 57f
8:05 14 15 mph 1018.6mb 58f
7:50 15 18 mph 1018.6mb 58f
7:35 16 18 mph 1018.6mb 58f
7:20 14 16 mph 1018.5mb 58f
7:05 8 11 mph 1018.5mb 57f
6:50 9 14 mph 1018.1mb 57f
6:35 10 15 mph 1018.1mb 57f
6:20 15 18 mph 1017.9mb 57f
6:05 16 21 mph 1017.9mb 57f
5:50 14 17 mph 1017.7mb 57f
5:35 11 15 mph 1017.5mb 58f
5:20 10 14 mph 1017.5mb 57f
5:05 10 15 mph 1017.3mb 58f
4:50 9 11 mph 1017.5mb 58f
4:35 7 10 mph 1017.7mb 58f
4:20 9 11 mph 1017.5mb 57f
4:05 9 13 mph 1017.6mb 57f
3:50 9 13 mph 1017.5mb 58f
3:35 9 13 mph 1017.8mb 58f
3:20 9 14 mph 1017.5mb 58f
3:05 10 15 mph 1017.5mb 58f
2:50 11 17 mph 1017mb 59f
2:35 14 21 mph 1017.3mb 60f
2:20 11 16 mph 1017.1mb 61f